N55169 KOWB-KSDF
Flight info
| Callsign | N55169 |
|---|---|
| Flight time | N/A |
| Altitude | 3000 |
| Route | KOWB KSDF |
| Aircraft | C172/L-S/C |
Departure
| Time | 2026-05-04 04:49 |
|---|---|
| Airport | Owensboro Daviess County Airport (KOWB) |
Arrival
| Time | N/A |
|---|---|
| Airport | Louisville Muhammad Ali International Airport (KSDF) |
| Time | Latitude | Longitude | Altitude | Speed | Heading |
|---|---|---|---|---|---|
| 2026-05-04 04:40 | 37.74570 | -87.16022 | 402 ft | 0 kts | 324° |
| 2026-05-04 04:43 | 37.74578 | -87.16039 | 402 ft | 3 kts | 253° |
| 2026-05-04 04:43 | 37.74565 | -87.16058 | 402 ft | 2 kts | 216° |
| 2026-05-04 04:43 | 37.74553 | -87.16071 | 402 ft | 1 kts | 224° |
| 2026-05-04 04:43 | 37.74536 | -87.16096 | 403 ft | 6 kts | 230° |
| 2026-05-04 04:44 | 37.74503 | -87.16148 | 404 ft | 7 kts | 232° |
| 2026-05-04 04:44 | 37.74465 | -87.16209 | 403 ft | 10 kts | 231° |
| 2026-05-04 04:44 | 37.74416 | -87.16288 | 402 ft | 12 kts | 231° |
| 2026-05-04 04:44 | 37.74364 | -87.16372 | 401 ft | 10 kts | 234° |
| 2026-05-04 04:45 | 37.74330 | -87.16425 | 401 ft | 4 kts | 229° |
| 2026-05-04 04:45 | 37.74321 | -87.16439 | 401 ft | 0 kts | 231° |
| 2026-05-04 04:45 | 37.74303 | -87.16470 | 401 ft | 8 kts | 231° |
| 2026-05-04 04:47 | 37.74189 | -87.16666 | 401 ft | 12 kts | 232° |
| 2026-05-04 04:47 | 37.74070 | -87.16728 | 401 ft | 25 kts | 167° |
| 2026-05-04 04:47 | 37.73725 | -87.16715 | 402 ft | 70 kts | 180° |
| 2026-05-04 04:47 | 37.73232 | -87.16734 | 606 ft | 72 kts | 183° |
| 2026-05-04 04:48 | 37.72718 | -87.16699 | 810 ft | 74 kts | 166° |
| 2026-05-04 04:49 | 37.70851 | -87.16943 | 1374 ft | 93 kts | 238° |
| 2026-05-04 04:49 | 37.70645 | -87.17657 | 1684 ft | 79 kts | 251° |
| 2026-05-04 04:49 | 37.70527 | -87.18282 | 1894 ft | 72 kts | 256° |
| 2026-05-04 04:49 | 37.70526 | -87.18948 | 1957 ft | 81 kts | 268° |
| 2026-05-04 04:50 | 37.70595 | -87.19662 | 2025 ft | 86 kts | 271° |
| 2026-05-04 04:50 | 37.70671 | -87.20439 | 2091 ft | 88 kts | 266° |
| 2026-05-04 04:50 | 37.70629 | -87.21211 | 2144 ft | 89 kts | 254° |
| 2026-05-04 04:50 | 37.70509 | -87.21950 | 2262 ft | 85 kts | 251° |
| 2026-05-04 04:51 | 37.70345 | -87.22662 | 2353 ft | 83 kts | 244° |
| 2026-05-04 04:51 | 37.70135 | -87.23344 | 2438 ft | 84 kts | 249° |
| 2026-05-04 04:51 | 37.69992 | -87.23998 | 2629 ft | 73 kts | 248° |
| 2026-05-04 04:51 | 37.69853 | -87.24652 | 2783 ft | 79 kts | 252° |
| 2026-05-04 04:52 | 37.69720 | -87.25343 | 2948 ft | 82 kts | 253° |
| 2026-05-04 04:52 | 37.69599 | -87.26027 | 3105 ft | 86 kts | 252° |
| 2026-05-04 04:52 | 37.69407 | -87.26783 | 3210 ft | 91 kts | 245° |
| 2026-05-04 04:52 | 37.69178 | -87.27516 | 3258 ft | 88 kts | 245° |
| 2026-05-04 04:53 | 37.68975 | -87.28241 | 3293 ft | 87 kts | 249° |
| 2026-05-04 04:53 | 37.68823 | -87.28979 | 3324 ft | 86 kts | 253° |
| 2026-05-04 04:53 | 37.68682 | -87.29701 | 3363 ft | 84 kts | 249° |
| 2026-05-04 04:53 | 37.68480 | -87.30432 | 3334 ft | 89 kts | 244° |
| 2026-05-04 04:54 | 37.68187 | -87.31165 | 3217 ft | 98 kts | 237° |
| 2026-05-04 04:54 | 37.67832 | -87.31840 | 3280 ft | 89 kts | 227° |
| 2026-05-04 04:54 | 37.67352 | -87.32301 | 3323 ft | 85 kts | 207° |
| 2026-05-04 04:54 | 37.66803 | -87.32603 | 3297 ft | 89 kts | 200° |
| 2026-05-04 04:55 | 37.66194 | -87.32752 | 3310 ft | 89 kts | 184° |
| 2026-05-04 04:55 | 37.65568 | -87.32575 | 3223 ft | 100 kts | 155° |
| 2026-05-04 04:55 | 37.65079 | -87.31934 | 3219 ft | 100 kts | 117° |
| 2026-05-04 04:55 | 37.64967 | -87.31049 | 3182 ft | 103 kts | 97° |
| 2026-05-04 04:56 | 37.64960 | -87.30151 | 3193 ft | 101 kts | 90° |
| 2026-05-04 04:56 | 37.65022 | -87.29297 | 3241 ft | 96 kts | 85° |
| 2026-05-04 04:56 | 37.65139 | -87.28462 | 3270 ft | 96 kts | 82° |
| 2026-05-04 04:56 | 37.65303 | -87.27643 | 3267 ft | 97 kts | 77° |
| 2026-05-04 04:57 | 37.65480 | -87.26829 | 3284 ft | 95 kts | 82° |
| 2026-05-04 04:57 | 37.65582 | -87.25986 | 3245 ft | 99 kts | 89° |
| 2026-05-04 04:57 | 37.65608 | -87.25114 | 3187 ft | 103 kts | 95° |
| 2026-05-04 04:57 | 37.65582 | -87.24170 | 3090 ft | 106 kts | 96° |
| 2026-05-04 04:58 | 37.65573 | -87.23267 | 3129 ft | 99 kts | 93° |
| 2026-05-04 04:58 | 37.65604 | -87.22418 | 3143 ft | 97 kts | 88° |
| 2026-05-04 04:58 | 37.65656 | -87.21557 | 3111 ft | 100 kts | 93° |
| 2026-05-04 04:58 | 37.65621 | -87.20713 | 3146 ft | 96 kts | 98° |
| 2026-05-04 04:59 | 37.65610 | -87.20548 | 3125 ft | 98 kts | 98° |
| 2026-05-04 04:59 | 37.65589 | -87.20243 | 3097 ft | 101 kts | 97° |
| 2026-05-04 04:59 | 37.65547 | -87.19373 | 3091 ft | 100 kts | 95° |
| 2026-05-04 04:59 | 37.65497 | -87.18525 | 3117 ft | 94 kts | 101° |
| 2026-05-04 05:00 | 37.65387 | -87.17714 | 3109 ft | 93 kts | 105° |
| 2026-05-04 05:00 | 37.65275 | -87.16911 | 3082 ft | 94 kts | 100° |
| 2026-05-04 05:00 | 37.65284 | -87.15163 | 2978 ft | 98 kts | 89° |
| 2026-05-04 05:01 | 37.65396 | -87.14287 | 2906 ft | 103 kts | 81° |
| 2026-05-04 05:01 | 37.65600 | -87.13406 | 2871 ft | 101 kts | 73° |
| 2026-05-04 05:01 | 37.65830 | -87.12550 | 2739 ft | 110 kts | 77° |
| 2026-05-04 05:01 | 37.66027 | -87.11654 | 2729 ft | 104 kts | 77° |
| 2026-05-04 05:02 | 37.66245 | -87.10750 | 2649 ft | 107 kts | 75° |
| 2026-05-04 05:02 | 37.66484 | -87.09883 | 2653 ft | 101 kts | 72° |
| 2026-05-04 05:02 | 37.66748 | -87.09006 | 2515 ft | 110 kts | 72° |
| 2026-05-04 05:02 | 37.67015 | -87.08070 | 2373 ft | 114 kts | 76° |
| 2026-05-04 05:03 | 37.67202 | -87.07143 | 2381 ft | 103 kts | 82° |
| 2026-05-04 05:03 | 37.67350 | -87.06292 | 2407 ft | 98 kts | 82° |
| 2026-05-04 05:04 | 37.67908 | -87.03728 | 2307 ft | 101 kts | 70° |
| 2026-05-04 05:04 | 37.68215 | -87.02937 | 2297 ft | 101 kts | 65° |
| 2026-05-04 05:04 | 37.68558 | -87.02163 | 2260 ft | 103 kts | 60° |
| 2026-05-04 05:06 | 37.70829 | -86.97443 | 2087 ft | 104 kts | 58° |
| 2026-05-04 05:06 | 37.71227 | -86.96707 | 2081 ft | 103 kts | 58° |
| 2026-05-04 05:06 | 37.71636 | -86.95943 | 2062 ft | 100 kts | 59° |
| 2026-05-04 05:07 | 37.71988 | -86.95235 | 2122 ft | 93 kts | 62° |
| 2026-05-04 05:07 | 37.72329 | -86.94538 | 2127 ft | 95 kts | 61° |
| 2026-05-04 05:07 | 37.72693 | -86.93837 | 2152 ft | 93 kts | 61° |
| 2026-05-04 05:09 | 37.73143 | -86.86961 | 1764 ft | 96 kts | 109° |
| 2026-05-04 05:09 | 37.72979 | -86.86156 | 1746 ft | 95 kts | 112° |
| 2026-05-04 05:10 | 37.72781 | -86.85332 | 1688 ft | 98 kts | 106° |
| 2026-05-04 05:10 | 37.72991 | -86.84554 | 1783 ft | 93 kts | 44° |
| 2026-05-04 05:10 | 37.73591 | -86.84160 | 1756 ft | 97 kts | 27° |
| 2026-05-04 05:10 | 37.74199 | -86.83775 | 1735 ft | 100 kts | 27° |
| 2026-05-04 05:11 | 37.74855 | -86.83390 | 1699 ft | 102 kts | 24° |
| 2026-05-04 05:11 | 37.75507 | -86.83040 | 1706 ft | 101 kts | 22° |
| 2026-05-04 05:11 | 37.76166 | -86.82729 | 1733 ft | 97 kts | 19° |
| 2026-05-04 05:11 | 37.76808 | -86.82486 | 1750 ft | 97 kts | 14° |
| 2026-05-04 05:12 | 37.77475 | -86.82281 | 1758 ft | 97 kts | 12° |
| 2026-05-04 05:12 | 37.78135 | -86.82083 | 1775 ft | 96 kts | 12° |
| 2026-05-04 05:12 | 37.78804 | -86.81871 | 1740 ft | 102 kts | 14° |
| 2026-05-04 05:12 | 37.79470 | -86.81620 | 1775 ft | 96 kts | 17° |
| 2026-05-04 05:13 | 37.80152 | -86.81326 | 1689 ft | 104 kts | 18° |
| 2026-05-04 05:13 | 37.80838 | -86.81043 | 1701 ft | 99 kts | 20° |
| 2026-05-04 05:13 | 37.81461 | -86.80679 | 1674 ft | 102 kts | 29° |
| 2026-05-04 05:13 | 37.82098 | -86.80249 | 1654 ft | 101 kts | 24° |
| 2026-05-04 05:14 | 37.82714 | -86.79901 | 1692 ft | 97 kts | 24° |
| 2026-05-04 05:14 | 37.83303 | -86.79536 | 1766 ft | 90 kts | 29° |
| 2026-05-04 05:14 | 37.83863 | -86.79125 | 1738 ft | 96 kts | 32° |
| 2026-05-04 05:14 | 37.84462 | -86.78665 | 1713 ft | 97 kts | 34° |
| 2026-05-04 05:15 | 37.84983 | -86.78183 | 1780 ft | 91 kts | 38° |
| 2026-05-04 05:15 | 37.85516 | -86.77683 | 1755 ft | 96 kts | 37° |
| 2026-05-04 05:15 | 37.86077 | -86.77158 | 1732 ft | 100 kts | 39° |
| 2026-05-04 05:15 | 37.86582 | -86.76578 | 1765 ft | 97 kts | 49° |
| 2026-05-04 05:16 | 37.87033 | -86.75929 | 1791 ft | 96 kts | 53° |
| 2026-05-04 05:16 | 37.87455 | -86.75237 | 1723 ft | 104 kts | 55° |
| 2026-05-04 05:16 | 37.87910 | -86.74506 | 1667 ft | 106 kts | 53° |
| 2026-05-04 05:16 | 37.88374 | -86.73774 | 1630 ft | 105 kts | 53° |
| 2026-05-04 05:17 | 37.88818 | -86.73041 | 1571 ft | 107 kts | 56° |
| 2026-05-04 05:17 | 37.89234 | -86.72235 | 1482 ft | 109 kts | 61° |
| 2026-05-04 05:17 | 37.89592 | -86.71425 | 1447 ft | 103 kts | 66° |
| 2026-05-04 05:17 | 37.89860 | -86.70606 | 1413 ft | 98 kts | 74° |
| 2026-05-04 05:18 | 37.90043 | -86.69765 | 1341 ft | 98 kts | 82° |
| 2026-05-04 05:18 | 37.90142 | -86.68905 | 1244 ft | 101 kts | 83° |
| 2026-05-04 05:18 | 37.90373 | -86.68116 | 1277 ft | 91 kts | 52° |
| 2026-05-04 05:18 | 37.90911 | -86.67700 | 1255 ft | 94 kts | 15° |
| 2026-05-04 05:19 | 37.91555 | -86.67541 | 1254 ft | 95 kts | 5° |
| 2026-05-04 05:19 | 37.92243 | -86.67464 | 1235 ft | 100 kts | 360° |
| 2026-05-04 05:19 | 37.92949 | -86.67409 | 1243 ft | 102 kts | 1° |
| 2026-05-04 05:19 | 37.93695 | -86.67358 | 1194 ft | 108 kts | 1° |
| 2026-05-04 05:20 | 37.94438 | -86.67244 | 1176 ft | 108 kts | 7° |
| 2026-05-04 05:20 | 37.95176 | -86.67082 | 1201 ft | 103 kts | 9° |
| 2026-05-04 05:20 | 37.95858 | -86.66874 | 1220 ft | 102 kts | 13° |
| 2026-05-04 05:20 | 37.96549 | -86.66634 | 1243 ft | 101 kts | 13° |
| 2026-05-04 05:21 | 37.97229 | -86.66425 | 1256 ft | 101 kts | 12° |
| 2026-05-04 05:21 | 37.97893 | -86.66309 | 1303 ft | 95 kts | 353° |
| 2026-05-04 05:21 | 37.98534 | -86.66470 | 1266 ft | 90 kts | 342° |
| 2026-05-04 05:21 | 37.99141 | -86.66673 | 1207 ft | 86 kts | 343° |
| 2026-05-04 05:22 | 37.99723 | -86.66823 | 1175 ft | 86 kts | 349° |
| 2026-05-04 05:22 | 38.00229 | -86.66988 | 1211 ft | 65 kts | 315° |
| 2026-05-04 05:22 | 38.00545 | -86.67412 | 1110 ft | 65 kts | 303° |
| 2026-05-04 05:22 | 38.00830 | -86.67860 | 1004 ft | 64 kts | 302° |
| 2026-05-04 05:23 | 38.01149 | -86.68269 | 864 ft | 70 kts | 310° |
| 2026-05-04 05:23 | 38.01474 | -86.68707 | 690 ft | 64 kts | 310° |
| 2026-05-04 05:23 | 38.01745 | -86.69057 | 636 ft | 46 kts | 315° |
| 2026-05-04 05:23 | 38.01940 | -86.69315 | 615 ft | 35 kts | 316° |
| 2026-05-04 05:24 | 38.02031 | -86.69464 | 605 ft | 0 kts | 179° |
| 2026-05-04 05:24 | 38.02018 | -86.69477 | 605 ft | 5 kts | 227° |
| 2026-05-04 05:24 | 38.02029 | -86.69524 | 603 ft | 9 kts | 357° |
| 2026-05-04 05:25 | 38.02039 | -86.69521 | 602 ft | 0 kts | 32° |
| 2026-05-04 05:25 | 38.02040 | -86.69520 | 602 ft | 0 kts | 33° |